ASK317R LIMC-EPWA
Flight info
| Callsign | ASK317R |
|---|---|
| Flight time | 1h 37m |
| Altitude | 37000 |
| Route | OSKOR DCT NESTI DCT MALUG DCT LEDVA DCT NETIR DCT ORTEB DCT KONZI DCT LOGDA |
| Aircraft | B738/M-SDE2E3FGHIRWXY/LB1 |
Departure
| Time | 2026-05-05 10:47 |
|---|---|
| Airport | Milan Malpensa International Airport (LIMC) |
Arrival
| Time | 2026-05-05 12:25 |
|---|---|
| Airport | Warsaw Chopin Airport (EPWA) |
| Time | Latitude | Longitude | Altitude | Speed | Heading |
|---|---|---|---|---|---|
| 2026-05-05 10:15 | 45.62403 | 8.71716 | 758 ft | 0 kts | 349° |
| 2026-05-05 10:36 | 45.62389 | 8.71719 | 754 ft | 3 kts | 352° |
| 2026-05-05 10:36 | 45.62367 | 8.71723 | 754 ft | 3 kts | 358° |
| 2026-05-05 10:37 | 45.62346 | 8.71723 | 756 ft | 3 kts | 7° |
| 2026-05-05 10:37 | 45.62325 | 8.71716 | 754 ft | 3 kts | 28° |
| 2026-05-05 10:37 | 45.62311 | 8.71700 | 755 ft | 3 kts | 74° |
| 2026-05-05 10:37 | 45.62309 | 8.71689 | 755 ft | 0 kts | 79° |
| 2026-05-05 10:40 | 45.62310 | 8.71693 | 754 ft | 1 kts | 79° |
| 2026-05-05 10:40 | 45.62313 | 8.71715 | 754 ft | 4 kts | 79° |
| 2026-05-05 10:40 | 45.62324 | 8.71798 | 753 ft | 12 kts | 79° |
| 2026-05-05 10:41 | 45.62342 | 8.71930 | 756 ft | 14 kts | 79° |
| 2026-05-05 10:41 | 45.62360 | 8.72059 | 758 ft | 13 kts | 78° |
| 2026-05-05 10:41 | 45.62373 | 8.72184 | 757 ft | 13 kts | 103° |
| 2026-05-05 10:41 | 45.62300 | 8.72240 | 757 ft | 12 kts | 168° |
| 2026-05-05 10:42 | 45.62236 | 8.72413 | 755 ft | 12 kts | 77° |
| 2026-05-05 10:42 | 45.62254 | 8.72537 | 756 ft | 14 kts | 80° |
| 2026-05-05 10:42 | 45.62273 | 8.72681 | 756 ft | 15 kts | 79° |
| 2026-05-05 10:43 | 45.62292 | 8.72822 | 758 ft | 14 kts | 79° |
| 2026-05-05 10:43 | 45.62309 | 8.72956 | 758 ft | 13 kts | 85° |
| 2026-05-05 10:43 | 45.62249 | 8.73035 | 758 ft | 13 kts | 168° |
| 2026-05-05 10:43 | 45.62162 | 8.73060 | 757 ft | 13 kts | 170° |
| 2026-05-05 10:44 | 45.62074 | 8.73085 | 757 ft | 14 kts | 168° |
| 2026-05-05 10:44 | 45.61963 | 8.73114 | 758 ft | 18 kts | 169° |
| 2026-05-05 10:44 | 45.61831 | 8.73151 | 757 ft | 16 kts | 169° |
| 2026-05-05 10:44 | 45.61743 | 8.73210 | 758 ft | 14 kts | 128° |
| 2026-05-05 10:45 | 45.61689 | 8.73324 | 756 ft | 14 kts | 125° |
| 2026-05-05 10:45 | 45.61636 | 8.73432 | 757 ft | 13 kts | 124° |
| 2026-05-05 10:45 | 45.61592 | 8.73540 | 757 ft | 13 kts | 106° |
| 2026-05-05 10:45 | 45.61594 | 8.73671 | 756 ft | 14 kts | 78° |
| 2026-05-05 10:46 | 45.61600 | 8.73710 | 758 ft | 1 kts | 77° |
| 2026-05-05 10:46 | 45.61610 | 8.73748 | 753 ft | 5 kts | 47° |
| 2026-05-05 10:46 | 45.61644 | 8.73734 | 758 ft | 5 kts | 339° |
| 2026-05-05 10:46 | 45.61680 | 8.73722 | 756 ft | 6 kts | 348° |
| 2026-05-05 10:47 | 45.61892 | 8.73664 | 758 ft | 72 kts | 349° |
| 2026-05-05 10:47 | 45.62661 | 8.73450 | 757 ft | 151 kts | 349° |
| 2026-05-05 10:47 | 45.63863 | 8.73121 | 1173 ft | 188 kts | 350° |
| 2026-05-05 10:47 | 45.65205 | 8.72808 | 2141 ft | 198 kts | 353° |
| 2026-05-05 10:48 | 45.66559 | 8.73093 | 3018 ft | 204 kts | 35° |
| 2026-05-05 10:48 | 45.67434 | 8.74553 | 4139 ft | 193 kts | 56° |
| 2026-05-05 10:48 | 45.68234 | 8.76107 | 4871 ft | 198 kts | 56° |
| 2026-05-05 10:48 | 45.69092 | 8.77713 | 5239 ft | 208 kts | 55° |
| 2026-05-05 10:49 | 45.69988 | 8.79357 | 5733 ft | 211 kts | 56° |
| 2026-05-05 10:49 | 45.70931 | 8.81070 | 6047 ft | 226 kts | 55° |
| 2026-05-05 10:49 | 45.71853 | 8.82918 | 6548 ft | 230 kts | 69° |
| 2026-05-05 10:49 | 45.72191 | 8.85128 | 7052 ft | 230 kts | 95° |
| 2026-05-05 10:50 | 45.71722 | 8.87357 | 7265 ft | 246 kts | 124° |
| 2026-05-05 10:50 | 45.70629 | 8.89347 | 7584 ft | 261 kts | 132° |
| 2026-05-05 10:50 | 45.69389 | 8.91293 | 8133 ft | 268 kts | 134° |
| 2026-05-05 10:50 | 45.68108 | 8.93258 | 8783 ft | 272 kts | 135° |
| 2026-05-05 10:51 | 45.66836 | 8.95212 | 9440 ft | 277 kts | 135° |
| 2026-05-05 10:51 | 45.65517 | 8.97251 | 10079 ft | 281 kts | 135° |
| 2026-05-05 10:51 | 45.64158 | 8.99358 | 10382 ft | 299 kts | 135° |
| 2026-05-05 10:51 | 45.62700 | 9.01625 | 10547 ft | 320 kts | 135° |
| 2026-05-05 10:52 | 45.61144 | 9.04054 | 10677 ft | 341 kts | 136° |
| 2026-05-05 10:52 | 45.59505 | 9.06616 | 10971 ft | 355 kts | 135° |
| 2026-05-05 10:52 | 45.57823 | 9.09253 | 11547 ft | 361 kts | 135° |
| 2026-05-05 10:52 | 45.56133 | 9.11905 | 12314 ft | 363 kts | 135° |
| 2026-05-05 10:53 | 45.54421 | 9.14588 | 12995 ft | 367 kts | 135° |
| 2026-05-05 10:53 | 45.52695 | 9.17287 | 13710 ft | 371 kts | 135° |
| 2026-05-05 10:53 | 45.50945 | 9.20016 | 14344 ft | 374 kts | 136° |
| 2026-05-05 10:53 | 45.49229 | 9.22822 | 14975 ft | 379 kts | 128° |
| 2026-05-05 10:54 | 45.48124 | 9.26278 | 15601 ft | 392 kts | 106° |
| 2026-05-05 10:54 | 45.47969 | 9.30183 | 16259 ft | 402 kts | 85° |
| 2026-05-05 10:54 | 45.48761 | 9.34035 | 16859 ft | 413 kts | 65° |
| 2026-05-05 10:54 | 45.50238 | 9.37569 | 17566 ft | 418 kts | 59° |
| 2026-05-05 10:55 | 45.51812 | 9.41088 | 18087 ft | 424 kts | 59° |
| 2026-05-05 10:55 | 45.53381 | 9.44680 | 18594 ft | 429 kts | 60° |
| 2026-05-05 10:55 | 45.54903 | 9.48290 | 19136 ft | 431 kts | 63° |
| 2026-05-05 10:55 | 45.56129 | 9.52178 | 19678 ft | 430 kts | 74° |
| 2026-05-05 10:56 | 45.56879 | 9.56287 | 20218 ft | 429 kts | 81° |
| 2026-05-05 10:56 | 45.57476 | 9.60467 | 20773 ft | 431 kts | 82° |
| 2026-05-05 10:56 | 45.58062 | 9.64670 | 21181 ft | 433 kts | 82° |
| 2026-05-05 10:56 | 45.58659 | 9.68898 | 21679 ft | 436 kts | 82° |
| 2026-05-05 10:57 | 45.59272 | 9.73166 | 22166 ft | 440 kts | 82° |
| 2026-05-05 10:57 | 45.59898 | 9.77453 | 22647 ft | 443 kts | 82° |
| 2026-05-05 10:57 | 45.60532 | 9.81767 | 23089 ft | 445 kts | 82° |
| 2026-05-05 10:57 | 45.61171 | 9.86112 | 23530 ft | 449 kts | 82° |
| 2026-05-05 10:58 | 45.61814 | 9.90487 | 23915 ft | 451 kts | 82° |
| 2026-05-05 10:58 | 45.62458 | 9.94883 | 24327 ft | 453 kts | 82° |
| 2026-05-05 10:58 | 45.62894 | 9.97859 | 24615 ft | 454 kts | 82° |
| 2026-05-05 10:58 | 45.63538 | 10.02282 | 24998 ft | 456 kts | 82° |
| 2026-05-05 10:59 | 45.64180 | 10.06673 | 25368 ft | 458 kts | 81° |
| 2026-05-05 10:59 | 45.65131 | 10.11052 | 25728 ft | 466 kts | 71° |
| 2026-05-05 10:59 | 45.66567 | 10.15231 | 26088 ft | 472 kts | 62° |
| 2026-05-05 10:59 | 45.68435 | 10.19126 | 26446 ft | 477 kts | 57° |
| 2026-05-05 11:00 | 45.70409 | 10.22944 | 26809 ft | 478 kts | 56° |
| 2026-05-05 11:00 | 45.72397 | 10.26769 | 27150 ft | 479 kts | 56° |
| 2026-05-05 11:00 | 45.74366 | 10.30611 | 27554 ft | 479 kts | 57° |
| 2026-05-05 11:00 | 45.76318 | 10.34486 | 27870 ft | 481 kts | 57° |
| 2026-05-05 11:01 | 45.78267 | 10.38397 | 28203 ft | 484 kts | 57° |
| 2026-05-05 11:01 | 45.80221 | 10.42334 | 28538 ft | 486 kts | 58° |
| 2026-05-05 11:01 | 45.82100 | 10.46361 | 28854 ft | 487 kts | 60° |
| 2026-05-05 11:01 | 45.83899 | 10.50478 | 29192 ft | 488 kts | 62° |
| 2026-05-05 11:02 | 45.85658 | 10.54628 | 29646 ft | 486 kts | 62° |
| 2026-05-05 11:02 | 45.87397 | 10.58768 | 30147 ft | 483 kts | 62° |
| 2026-05-05 11:02 | 45.89120 | 10.62863 | 30502 ft | 483 kts | 62° |
| 2026-05-05 11:02 | 45.90859 | 10.66978 | 30704 ft | 486 kts | 62° |
| 2026-05-05 11:03 | 45.92626 | 10.71141 | 30921 ft | 488 kts | 62° |
| 2026-05-05 11:03 | 45.94394 | 10.75295 | 31274 ft | 487 kts | 61° |
| 2026-05-05 11:03 | 45.96160 | 10.79434 | 31662 ft | 486 kts | 61° |
| 2026-05-05 11:03 | 45.97927 | 10.83580 | 31962 ft | 486 kts | 61° |
| 2026-05-05 11:04 | 45.99697 | 10.87736 | 32158 ft | 488 kts | 61° |
| 2026-05-05 11:04 | 46.01471 | 10.91909 | 32421 ft | 489 kts | 61° |
| 2026-05-05 11:04 | 46.03241 | 10.96081 | 32732 ft | 489 kts | 61° |
| 2026-05-05 11:04 | 46.05010 | 11.00257 | 33067 ft | 488 kts | 60° |
| 2026-05-05 11:05 | 46.06775 | 11.04432 | 33478 ft | 487 kts | 60° |
| 2026-05-05 11:05 | 46.08534 | 11.08598 | 33797 ft | 488 kts | 60° |
| 2026-05-05 11:05 | 46.10297 | 11.12780 | 34075 ft | 489 kts | 60° |
| 2026-05-05 11:05 | 46.12062 | 11.16974 | 34369 ft | 489 kts | 60° |
| 2026-05-05 11:06 | 46.13823 | 11.21164 | 34683 ft | 488 kts | 60° |
| 2026-05-05 11:06 | 46.15576 | 11.25341 | 34989 ft | 486 kts | 60° |
| 2026-05-05 11:06 | 46.17323 | 11.29510 | 35280 ft | 485 kts | 60° |
| 2026-05-05 11:06 | 46.19066 | 11.33677 | 35546 ft | 485 kts | 60° |
| 2026-05-05 11:07 | 46.20807 | 11.37845 | 35778 ft | 484 kts | 59° |
| 2026-05-05 11:07 | 46.22542 | 11.42004 | 36025 ft | 483 kts | 59° |
| 2026-05-05 11:07 | 46.24272 | 11.46159 | 36234 ft | 482 kts | 59° |
| 2026-05-05 11:07 | 46.26000 | 11.50314 | 36431 ft | 482 kts | 59° |
| 2026-05-05 11:08 | 46.27725 | 11.54468 | 36629 ft | 482 kts | 59° |
| 2026-05-05 11:08 | 46.29442 | 11.58611 | 36824 ft | 482 kts | 59° |
| 2026-05-05 11:08 | 46.31150 | 11.62737 | 36753 ft | 487 kts | 59° |
| 2026-05-05 11:08 | 46.32925 | 11.67032 | 36366 ft | 492 kts | 59° |
| 2026-05-05 11:09 | 46.34652 | 11.71214 | 35983 ft | 489 kts | 60° |
| 2026-05-05 11:09 | 46.36384 | 11.75417 | 35602 ft | 484 kts | 60° |
| 2026-05-05 11:09 | 46.38115 | 11.79622 | 35525 ft | 473 kts | 60° |
| 2026-05-05 11:09 | 46.39762 | 11.83631 | 35824 ft | 470 kts | 60° |
| 2026-05-05 11:10 | 46.41434 | 11.87707 | 36065 ft | 469 kts | 60° |
| 2026-05-05 11:10 | 46.43098 | 11.91769 | 36306 ft | 468 kts | 60° |
| 2026-05-05 11:10 | 46.44757 | 11.95827 | 36563 ft | 467 kts | 60° |
| 2026-05-05 11:10 | 46.46407 | 11.99866 | 36819 ft | 466 kts | 60° |
| 2026-05-05 11:11 | 46.48058 | 12.03915 | 36998 ft | 467 kts | 60° |
| 2026-05-05 11:11 | 46.51363 | 12.12038 | 36977 ft | 475 kts | 60° |
| 2026-05-05 11:12 | 46.54743 | 12.20369 | 37009 ft | 482 kts | 60° |
| 2026-05-05 11:12 | 46.58138 | 12.28763 | 37016 ft | 483 kts | 60° |
| 2026-05-05 11:13 | 46.61542 | 12.37203 | 37025 ft | 484 kts | 60° |
| 2026-05-05 11:13 | 46.64940 | 12.45658 | 37007 ft | 484 kts | 60° |
| 2026-05-05 11:14 | 46.68332 | 12.54120 | 37005 ft | 484 kts | 60° |
| 2026-05-05 11:14 | 46.71547 | 12.61887 | 36990 ft | 483 kts | 55° |
| 2026-05-05 11:15 | 46.75549 | 12.69716 | 36986 ft | 482 kts | 52° |
| 2026-05-05 11:15 | 46.79661 | 12.77415 | 36967 ft | 480 kts | 52° |
| 2026-05-05 11:16 | 46.83721 | 12.85134 | 36969 ft | 479 kts | 52° |
| 2026-05-05 11:16 | 46.87728 | 12.92883 | 36978 ft | 477 kts | 53° |
| 2026-05-05 11:17 | 46.91708 | 13.00637 | 36948 ft | 476 kts | 53° |
| 2026-05-05 11:17 | 46.95375 | 13.07805 | 36973 ft | 474 kts | 53° |
| 2026-05-05 11:18 | 46.99318 | 13.15530 | 36933 ft | 474 kts | 53° |
| 2026-05-05 11:18 | 47.03229 | 13.23207 | 36943 ft | 474 kts | 53° |
| 2026-05-05 11:19 | 47.07167 | 13.30960 | 36907 ft | 475 kts | 53° |
| 2026-05-05 11:19 | 47.10606 | 13.37748 | 36905 ft | 476 kts | 53° |
| 2026-05-05 11:20 | 47.14548 | 13.45550 | 36889 ft | 479 kts | 53° |
| 2026-05-05 11:20 | 47.18504 | 13.53402 | 36897 ft | 479 kts | 53° |
| 2026-05-05 11:21 | 47.22463 | 13.61283 | 36906 ft | 479 kts | 53° |
| 2026-05-05 11:21 | 47.26423 | 13.69187 | 36890 ft | 480 kts | 53° |
| 2026-05-05 11:22 | 47.30378 | 13.77105 | 36876 ft | 480 kts | 53° |
| 2026-05-05 11:22 | 47.34295 | 13.84969 | 36849 ft | 480 kts | 53° |
| 2026-05-05 11:23 | 47.38215 | 13.92863 | 36856 ft | 478 kts | 53° |
| 2026-05-05 11:23 | 47.42132 | 14.00771 | 36861 ft | 477 kts | 53° |
| 2026-05-05 11:24 | 47.46037 | 14.08679 | 36845 ft | 476 kts | 53° |
| 2026-05-05 11:24 | 47.49928 | 14.16581 | 36845 ft | 474 kts | 53° |
| 2026-05-05 11:25 | 47.53802 | 14.24471 | 36829 ft | 473 kts | 54° |
| 2026-05-05 11:25 | 47.57662 | 14.32356 | 36836 ft | 473 kts | 53° |
| 2026-05-05 11:26 | 47.61513 | 14.40245 | 36829 ft | 472 kts | 53° |
| 2026-05-05 11:26 | 47.65327 | 14.48080 | 36820 ft | 473 kts | 53° |
| 2026-05-05 11:27 | 47.69170 | 14.55997 | 36820 ft | 473 kts | 53° |
| 2026-05-05 11:27 | 47.72612 | 14.63109 | 36830 ft | 474 kts | 54° |
| 2026-05-05 11:28 | 47.76461 | 14.71082 | 36830 ft | 475 kts | 54° |
| 2026-05-05 11:28 | 47.80030 | 14.78495 | 36809 ft | 476 kts | 54° |
| 2026-05-05 11:29 | 47.83878 | 14.86512 | 36825 ft | 476 kts | 54° |
| 2026-05-05 11:29 | 47.87748 | 14.94598 | 36815 ft | 476 kts | 54° |
| 2026-05-05 11:30 | 47.91559 | 15.02584 | 36813 ft | 476 kts | 54° |
| 2026-05-05 11:30 | 47.95214 | 15.10266 | 36819 ft | 475 kts | 54° |
| 2026-05-05 11:31 | 47.99031 | 15.18313 | 36808 ft | 474 kts | 54° |
| 2026-05-05 11:31 | 48.02806 | 15.26291 | 36814 ft | 474 kts | 54° |
| 2026-05-05 11:32 | 48.06594 | 15.34323 | 36822 ft | 474 kts | 54° |
| 2026-05-05 11:32 | 48.10372 | 15.42356 | 36816 ft | 472 kts | 54° |
| 2026-05-05 11:33 | 48.14142 | 15.50397 | 36815 ft | 472 kts | 54° |
| 2026-05-05 11:33 | 48.17907 | 15.58450 | 36809 ft | 473 kts | 54° |
| 2026-05-05 11:34 | 48.21678 | 15.66540 | 36814 ft | 473 kts | 54° |
| 2026-05-05 11:34 | 48.25297 | 15.74326 | 36822 ft | 474 kts | 54° |
| 2026-05-05 11:35 | 48.29047 | 15.82419 | 36809 ft | 474 kts | 54° |
| 2026-05-05 11:35 | 48.32512 | 15.89921 | 36808 ft | 473 kts | 54° |
| 2026-05-05 11:36 | 48.36257 | 15.98047 | 36810 ft | 472 kts | 54° |
| 2026-05-05 11:36 | 48.39990 | 16.06173 | 36827 ft | 472 kts | 54° |
| 2026-05-05 11:37 | 48.43714 | 16.14304 | 36811 ft | 472 kts | 54° |
| 2026-05-05 11:37 | 48.47398 | 16.22372 | 36818 ft | 471 kts | 54° |
| 2026-05-05 11:38 | 48.51101 | 16.30506 | 36823 ft | 470 kts | 54° |
| 2026-05-05 11:38 | 48.54636 | 16.38295 | 36827 ft | 470 kts | 55° |
| 2026-05-05 11:39 | 48.58277 | 16.46340 | 36827 ft | 470 kts | 55° |
| 2026-05-05 11:39 | 48.61365 | 16.53183 | 36836 ft | 470 kts | 55° |
| 2026-05-05 11:40 | 48.65048 | 16.61368 | 36837 ft | 470 kts | 55° |
| 2026-05-05 11:40 | 48.68722 | 16.69554 | 36829 ft | 470 kts | 55° |
| 2026-05-05 11:41 | 48.72390 | 16.77751 | 36831 ft | 470 kts | 55° |
| 2026-05-05 11:41 | 48.76284 | 16.85709 | 36836 ft | 470 kts | 50° |
| 2026-05-05 11:42 | 48.80374 | 16.93443 | 36838 ft | 470 kts | 50° |
| 2026-05-05 11:42 | 48.84466 | 17.01202 | 36840 ft | 471 kts | 50° |
| 2026-05-05 11:43 | 48.88529 | 17.09024 | 36862 ft | 472 kts | 51° |
| 2026-05-05 11:43 | 48.92345 | 17.16433 | 36877 ft | 473 kts | 51° |
| 2026-05-05 11:44 | 48.96360 | 17.24260 | 36878 ft | 474 kts | 51° |
| 2026-05-05 11:44 | 49.00108 | 17.31584 | 36885 ft | 475 kts | 51° |
| 2026-05-05 11:45 | 49.04160 | 17.39523 | 36883 ft | 475 kts | 51° |
| 2026-05-05 11:45 | 49.08209 | 17.47477 | 36878 ft | 475 kts | 51° |
| 2026-05-05 11:46 | 49.12232 | 17.55404 | 36876 ft | 475 kts | 51° |
| 2026-05-05 11:46 | 49.15833 | 17.62520 | 36873 ft | 474 kts | 51° |
| 2026-05-05 11:47 | 49.19183 | 17.69159 | 36874 ft | 474 kts | 51° |
| 2026-05-05 11:47 | 49.22867 | 17.76476 | 36865 ft | 473 kts | 51° |
| 2026-05-05 11:48 | 49.28623 | 17.87951 | 36869 ft | 473 kts | 51° |
| 2026-05-05 11:48 | 49.32495 | 17.95697 | 36853 ft | 473 kts | 52° |
| 2026-05-05 11:49 | 49.36016 | 18.02763 | 36860 ft | 472 kts | 52° |
| 2026-05-05 11:49 | 49.39935 | 18.10648 | 36859 ft | 472 kts | 52° |
| 2026-05-05 11:50 | 49.43638 | 18.18118 | 36851 ft | 472 kts | 52° |
| 2026-05-05 11:50 | 49.47468 | 18.25869 | 36850 ft | 472 kts | 52° |
| 2026-05-05 11:51 | 49.51044 | 18.33125 | 36850 ft | 472 kts | 52° |
| 2026-05-05 11:51 | 49.54768 | 18.40704 | 36858 ft | 473 kts | 52° |
| 2026-05-05 11:52 | 49.58279 | 18.47867 | 36852 ft | 473 kts | 52° |
| 2026-05-05 11:52 | 49.61878 | 18.55232 | 36866 ft | 474 kts | 52° |
| 2026-05-05 11:53 | 49.65842 | 18.63365 | 36865 ft | 474 kts | 52° |
| 2026-05-05 11:53 | 49.69592 | 18.71722 | 36853 ft | 476 kts | 62° |
| 2026-05-05 11:54 | 49.71700 | 18.79879 | 36882 ft | 475 kts | 71° |
| 2026-05-05 11:54 | 49.73772 | 18.89360 | 36867 ft | 476 kts | 71° |
| 2026-05-05 11:55 | 49.75720 | 18.98228 | 36876 ft | 477 kts | 71° |
| 2026-05-05 11:55 | 49.77877 | 19.07893 | 36877 ft | 477 kts | 71° |
| 2026-05-05 11:56 | 49.79917 | 19.16992 | 36876 ft | 477 kts | 71° |
| 2026-05-05 11:56 | 49.82084 | 19.26690 | 36869 ft | 477 kts | 71° |
| 2026-05-05 11:57 | 49.84241 | 19.36393 | 36872 ft | 476 kts | 71° |
| 2026-05-05 11:57 | 49.86390 | 19.46108 | 36888 ft | 476 kts | 71° |
| 2026-05-05 11:58 | 49.88526 | 19.55817 | 36882 ft | 476 kts | 71° |
| 2026-05-05 11:58 | 49.90637 | 19.65454 | 36901 ft | 476 kts | 71° |
| 2026-05-05 11:59 | 49.92771 | 19.75243 | 36856 ft | 475 kts | 71° |
| 2026-05-05 11:59 | 49.94861 | 19.84874 | 36856 ft | 474 kts | 71° |
| 2026-05-05 12:00 | 49.96956 | 19.94568 | 36854 ft | 473 kts | 70° |
| 2026-05-05 12:00 | 49.98313 | 19.99202 | 36860 ft | 471 kts | 56° |
| 2026-05-05 12:00 | 50.00289 | 20.03222 | 36879 ft | 467 kts | 44° |
| 2026-05-05 12:01 | 50.02709 | 20.06588 | 36866 ft | 463 kts | 33° |
| 2026-05-05 12:01 | 50.05399 | 20.09329 | 36894 ft | 461 kts | 30° |
| 2026-05-05 12:01 | 50.10882 | 20.14446 | 36771 ft | 454 kts | 20° |
| 2026-05-05 12:02 | 50.13807 | 20.16181 | 36270 ft | 448 kts | 16° |
| 2026-05-05 12:02 | 50.16768 | 20.17780 | 35540 ft | 452 kts | 16° |
| 2026-05-05 12:02 | 50.19728 | 20.19352 | 34729 ft | 458 kts | 16° |
| 2026-05-05 12:02 | 50.22803 | 20.20998 | 33956 ft | 463 kts | 16° |
| 2026-05-05 12:03 | 50.25821 | 20.22637 | 33143 ft | 467 kts | 17° |
| 2026-05-05 12:03 | 50.28898 | 20.24333 | 32345 ft | 470 kts | 17° |
| 2026-05-05 12:03 | 50.31985 | 20.26055 | 31598 ft | 472 kts | 17° |
| 2026-05-05 12:03 | 50.35080 | 20.27793 | 30829 ft | 474 kts | 17° |
| 2026-05-05 12:04 | 50.38189 | 20.29546 | 30078 ft | 475 kts | 17° |
| 2026-05-05 12:04 | 50.41305 | 20.31307 | 29442 ft | 472 kts | 17° |
| 2026-05-05 12:04 | 50.44373 | 20.33044 | 28909 ft | 466 kts | 18° |
| 2026-05-05 12:04 | 50.47411 | 20.34766 | 28369 ft | 461 kts | 18° |
| 2026-05-05 12:05 | 50.50415 | 20.36469 | 27790 ft | 457 kts | 18° |
| 2026-05-05 12:05 | 50.53396 | 20.38161 | 27196 ft | 454 kts | 18° |
| 2026-05-05 12:05 | 50.56358 | 20.39842 | 26613 ft | 451 kts | 18° |
| 2026-05-05 12:05 | 50.59303 | 20.41516 | 26060 ft | 449 kts | 18° |
| 2026-05-05 12:06 | 50.62230 | 20.43181 | 25513 ft | 446 kts | 18° |
| 2026-05-05 12:06 | 50.65136 | 20.44837 | 24997 ft | 442 kts | 18° |
| 2026-05-05 12:06 | 50.68019 | 20.46483 | 24491 ft | 439 kts | 18° |
| 2026-05-05 12:06 | 50.70879 | 20.48117 | 23985 ft | 437 kts | 18° |
| 2026-05-05 12:07 | 50.73729 | 20.49748 | 23450 ft | 435 kts | 18° |
| 2026-05-05 12:07 | 50.76570 | 20.51375 | 22841 ft | 433 kts | 18° |
| 2026-05-05 12:07 | 50.79393 | 20.52995 | 22300 ft | 430 kts | 18° |
| 2026-05-05 12:07 | 50.82193 | 20.54604 | 21767 ft | 427 kts | 18° |
| 2026-05-05 12:08 | 50.84976 | 20.56205 | 21224 ft | 424 kts | 18° |
| 2026-05-05 12:08 | 50.87720 | 20.57786 | 20686 ft | 422 kts | 18° |
| 2026-05-05 12:08 | 50.90477 | 20.59376 | 20150 ft | 421 kts | 18° |
| 2026-05-05 12:08 | 50.93221 | 20.60960 | 19649 ft | 419 kts | 18° |
| 2026-05-05 12:09 | 50.95945 | 20.62536 | 19206 ft | 415 kts | 18° |
| 2026-05-05 12:09 | 50.98645 | 20.64098 | 18751 ft | 412 kts | 18° |
| 2026-05-05 12:09 | 51.01316 | 20.65647 | 18276 ft | 410 kts | 18° |
| 2026-05-05 12:09 | 51.03989 | 20.67197 | 17734 ft | 408 kts | 18° |
| 2026-05-05 12:10 | 51.06653 | 20.68745 | 17203 ft | 406 kts | 18° |
| 2026-05-05 12:10 | 51.09299 | 20.70284 | 16699 ft | 404 kts | 18° |
| 2026-05-05 12:10 | 51.11928 | 20.71815 | 16208 ft | 401 kts | 18° |
| 2026-05-05 12:10 | 51.14540 | 20.73338 | 15736 ft | 399 kts | 18° |
| 2026-05-05 12:11 | 51.17135 | 20.74854 | 15292 ft | 395 kts | 18° |
| 2026-05-05 12:11 | 51.19709 | 20.76359 | 14860 ft | 393 kts | 18° |
| 2026-05-05 12:11 | 51.22265 | 20.77856 | 14399 ft | 391 kts | 18° |
| 2026-05-05 12:11 | 51.24812 | 20.79347 | 13950 ft | 388 kts | 18° |
| 2026-05-05 12:12 | 51.27339 | 20.80830 | 13479 ft | 387 kts | 18° |
| 2026-05-05 12:12 | 51.29863 | 20.82312 | 13000 ft | 384 kts | 18° |
| 2026-05-05 12:12 | 51.32363 | 20.83782 | 12533 ft | 382 kts | 18° |
| 2026-05-05 12:12 | 51.34850 | 20.85246 | 12074 ft | 380 kts | 18° |
| 2026-05-05 12:13 | 51.37324 | 20.86703 | 11636 ft | 378 kts | 18° |
| 2026-05-05 12:13 | 51.39779 | 20.88152 | 11305 ft | 373 kts | 18° |
| 2026-05-05 12:13 | 51.42173 | 20.89570 | 11201 ft | 361 kts | 18° |
| 2026-05-05 12:13 | 51.44461 | 20.90925 | 11119 ft | 350 kts | 17° |
| 2026-05-05 12:14 | 51.46705 | 20.92254 | 11038 ft | 339 kts | 17° |
| 2026-05-05 12:14 | 51.48880 | 20.93545 | 10967 ft | 328 kts | 17° |
| 2026-05-05 12:14 | 51.50989 | 20.94797 | 10886 ft | 318 kts | 17° |
| 2026-05-05 12:14 | 51.53038 | 20.96015 | 10804 ft | 309 kts | 17° |
| 2026-05-05 12:15 | 51.55039 | 20.97203 | 10608 ft | 305 kts | 17° |
| 2026-05-05 12:15 | 51.57037 | 20.98375 | 10308 ft | 305 kts | 15° |
| 2026-05-05 12:15 | 51.59072 | 20.99281 | 10035 ft | 303 kts | 9° |
| 2026-05-05 12:15 | 51.61123 | 21.00039 | 9799 ft | 301 kts | 8° |
| 2026-05-05 12:16 | 51.63164 | 21.00769 | 9338 ft | 300 kts | 9° |
| 2026-05-05 12:16 | 51.65192 | 21.01504 | 8910 ft | 298 kts | 9° |
| 2026-05-05 12:16 | 51.67205 | 21.02248 | 8467 ft | 296 kts | 10° |
| 2026-05-05 12:16 | 51.69197 | 21.02993 | 8019 ft | 295 kts | 11° |
| 2026-05-05 12:17 | 51.71187 | 21.03750 | 7573 ft | 293 kts | 11° |
| 2026-05-05 12:17 | 51.73169 | 21.04508 | 7134 ft | 292 kts | 11° |
| 2026-05-05 12:17 | 51.75147 | 21.05268 | 6695 ft | 291 kts | 12° |
| 2026-05-05 12:17 | 51.77110 | 21.06025 | 6265 ft | 290 kts | 12° |
| 2026-05-05 12:18 | 51.79066 | 21.06780 | 5836 ft | 288 kts | 12° |
| 2026-05-05 12:18 | 51.81006 | 21.07530 | 5435 ft | 284 kts | 12° |
| 2026-05-05 12:18 | 51.82886 | 21.08262 | 5310 ft | 272 kts | 12° |
| 2026-05-05 12:18 | 51.84689 | 21.08964 | 5202 ft | 260 kts | 13° |
| 2026-05-05 12:19 | 51.86409 | 21.09632 | 5067 ft | 249 kts | 13° |
| 2026-05-05 12:19 | 51.88065 | 21.10277 | 4962 ft | 242 kts | 13° |
| 2026-05-05 12:19 | 51.89699 | 21.10909 | 4883 ft | 243 kts | 13° |
| 2026-05-05 12:19 | 51.91356 | 21.11552 | 4776 ft | 245 kts | 13° |
| 2026-05-05 12:20 | 51.92989 | 21.12189 | 4600 ft | 240 kts | 13° |
| 2026-05-05 12:20 | 51.94605 | 21.12822 | 4364 ft | 238 kts | 13° |
| 2026-05-05 12:20 | 51.96199 | 21.13435 | 4150 ft | 240 kts | 9° |
| 2026-05-05 12:20 | 51.97837 | 21.13250 | 3876 ft | 237 kts | 333° |
| 2026-05-05 12:21 | 51.99234 | 21.11915 | 3728 ft | 228 kts | 326° |
| 2026-05-05 12:21 | 52.00591 | 21.10694 | 3559 ft | 222 kts | 329° |
| 2026-05-05 12:21 | 52.01951 | 21.09536 | 3270 ft | 217 kts | 330° |
| 2026-05-05 12:21 | 52.03248 | 21.08410 | 3007 ft | 206 kts | 328° |
| 2026-05-05 12:22 | 52.04497 | 21.07306 | 2749 ft | 202 kts | 328° |
| 2026-05-05 12:22 | 52.05698 | 21.06252 | 2494 ft | 190 kts | 328° |
| 2026-05-05 12:22 | 52.06819 | 21.05270 | 2250 ft | 178 kts | 328° |
| 2026-05-05 12:22 | 52.07869 | 21.04350 | 2027 ft | 166 kts | 328° |
| 2026-05-05 12:23 | 52.08878 | 21.03458 | 1836 ft | 165 kts | 329° |
| 2026-05-05 12:23 | 52.09891 | 21.02572 | 1605 ft | 165 kts | 329° |
| 2026-05-05 12:23 | 52.10887 | 21.01700 | 1381 ft | 161 kts | 329° |
| 2026-05-05 12:23 | 52.11888 | 21.00819 | 1169 ft | 164 kts | 329° |
| 2026-05-05 12:24 | 52.12879 | 20.99950 | 973 ft | 161 kts | 329° |
| 2026-05-05 12:24 | 52.13873 | 20.99078 | 760 ft | 162 kts | 328° |
| 2026-05-05 12:24 | 52.14852 | 20.98222 | 548 ft | 158 kts | 329° |
| 2026-05-05 12:24 | 52.15814 | 20.97382 | 353 ft | 154 kts | 327° |
| 2026-05-05 12:25 | 52.16636 | 20.96658 | 337 ft | 106 kts | 332° |
| 2026-05-05 12:25 | 52.17050 | 20.96304 | 334 ft | 22 kts | 338° |
| 2026-05-05 12:25 | 52.17196 | 20.96245 | 332 ft | 24 kts | 353° |
| 2026-05-05 12:25 | 52.17348 | 20.96246 | 337 ft | 15 kts | 6° |
| 2026-05-05 12:26 | 52.17393 | 20.96285 | 335 ft | 0 kts | 52° |
| 2026-05-05 12:28 | 52.17397 | 20.96295 | 335 ft | 5 kts | 57° |
| 2026-05-05 12:28 | 52.17395 | 20.96376 | 335 ft | 9 kts | 120° |
| 2026-05-05 12:28 | 52.17338 | 20.96441 | 335 ft | 11 kts | 153° |
| 2026-05-05 12:29 | 52.17267 | 20.96505 | 335 ft | 12 kts | 151° |
| 2026-05-05 12:29 | 52.17189 | 20.96575 | 336 ft | 13 kts | 151° |
| 2026-05-05 12:29 | 52.17134 | 20.96631 | 338 ft | 6 kts | 125° |
| 2026-05-05 12:29 | 52.17137 | 20.96710 | 336 ft | 10 kts | 65° |
| 2026-05-05 12:30 | 52.17152 | 20.96831 | 338 ft | 11 kts | 127° |
| 2026-05-05 12:30 | 52.17085 | 20.96903 | 336 ft | 12 kts | 152° |
| 2026-05-05 12:30 | 52.17002 | 20.96976 | 335 ft | 15 kts | 152° |
| 2026-05-05 12:30 | 52.16930 | 20.97038 | 336 ft | 3 kts | 152° |
| 2026-05-05 12:31 | 52.16924 | 20.97065 | 336 ft | 3 kts | 69° |
| 2026-05-05 12:31 | 52.16934 | 20.97097 | 336 ft | 3 kts | 63° |
| 2026-05-05 12:31 | 52.16942 | 20.97130 | 334 ft | 3 kts | 69° |
| 2026-05-05 12:31 | 52.16950 | 20.97161 | 336 ft | 3 kts | 68° |
| 2026-05-05 12:32 | 52.16955 | 20.97179 | 336 ft | 1 kts | 68° |
| 2026-05-05 12:32 | 52.16956 | 20.97186 | 337 ft | 0 kts | 68° |
| 2026-05-05 12:32 | 52.16957 | 20.97189 | 337 ft | 0 kts | 68° |